Time;durP1;ratioP1;P1;durP2;ratioP2;P2;SDS_P1;SDS_P2;PMS_P1;PMS_P2;Temp;Humidity;BMP_temperature;BMP_pressure;BME280_temperature;BME280_humidity;BME280_pressure;Samples;Min_cycle;Max_cycle;Signal;HPM_P1;HPM_P2
2021/05/31 04:56:50;;;;;;;3.22;1.67;;;;;;;17.18;49.33;100357.84;1837099;76;22741;-69
2021/05/31 04:59:17;;;;;;;2.20;1.72;;;;;;;16.64;50.38;100369.03;1820449;77;21028;-69
2021/05/31 05:01:44;;;;;;;4.12;2.10;;;;;;;16.19;51.56;100372.45;1822244;77;21483;-70
2021/05/31 05:04:12;;;;;;;2.15;1.50;;;;;;;15.78;52.54;100366.28;1821745;77;21537;-68
2021/05/31 05:06:39;;;;;;;3.52;1.67;;;;;;;15.54;53.02;100374.12;1840805;77;20912;-68
2021/05/31 05:09:06;;;;;;;3.65;1.80;;;;;;;15.39;53.74;100363.39;1836156;77;21554;-69
2021/05/31 05:11:33;;;;;;;2.22;1.70;;;;;;;15.32;53.94;100368.22;1841024;77;20991;-69
2021/05/31 05:14:01;;;;;;;3.85;2.25;;;;;;;15.26;55.00;100362.09;1829221;77;21834;-70
2021/05/31 05:16:28;;;;;;;5.37;1.90;;;;;;;15.20;55.53;100361.20;1831310;77;20917;-70
2021/05/31 05:18:58;;;;;;;5.00;2.02;;;;;;;15.23;55.38;100361.83;1827495;77;20857;-70
2021/05/31 05:21:25;;;;;;;2.62;1.82;;;;;;;15.18;55.44;100362.66;1788590;79;21028;-70
2021/05/31 05:23:53;;;;;;;2.65;1.45;;;;;;;15.21;54.97;100365.03;1788811;79;21542;-69
2021/05/31 05:26:20;;;;;;;1.60;1.50;;;;;;;15.26;55.01;100362.93;1836418;77;21035;-71
2021/05/31 05:28:48;;;;;;;1.57;1.50;;;;;;;15.29;54.27;100365.34;1821634;77;20892;-67
2021/05/31 05:31:16;;;;;;;2.00;1.57;;;;;;;15.18;54.40;100375.77;1829168;77;21497;-73
2021/05/31 05:33:43;;;;;;;3.58;1.60;;;;;;;15.11;54.73;100367.95;1831813;77;21618;-73
2021/05/31 05:36:23;;;;;;;4.45;1.90;;;;;;;15.16;54.37;100368.48;1838035;77;21069;-75
2021/05/31 05:39:13;;;;;;;6.10;1.75;;;;;;;15.45;54.04;100374.30;1843402;77;21092;-71
2021/05/31 05:41:38;;;;;;;2.33;1.70;;;;;;;15.74;53.11;100369.60;1853148;77;21590;-68
2021/05/31 05:49:18;;;;;;;2.47;1.67;;;;;;;15.63;52.90;100375.62;1702987;80;20920;-69
2021/05/31 05:51:46;;;;;;;1.52;1.42;;;;;;;15.60;53.26;100377.15;1835376;77;21562;-70
2021/05/31 05:54:13;;;;;;;1.70;1.40;;;;;;;15.55;51.73;100377.95;1832463;77;20944;-70
2021/05/31 05:56:41;;;;;;;1.62;1.52;;;;;;;15.42;52.10;100378.92;1834802;77;20984;-73
2021/05/31 05:59:11;;;;;;;3.77;1.60;;;;;;;15.52;52.61;100380.78;1840607;77;21015;-76
2021/05/31 06:01:39;;;;;;;3.92;1.17;;;;;;;15.61;51.33;100384.08;1827999;77;21475;-77
2021/05/31 06:04:06;;;;;;;2.00;1.20;;;;;;;15.88;50.64;100373.39;1769430;79;20961;-76
2021/05/31 06:06:34;;;;;;;3.35;1.47;;;;;;;16.00;49.57;100376.41;1826873;77;21022;-74
2021/05/31 06:09:01;;;;;;;5.10;1.62;;;;;;;16.11;48.50;100376.11;1818296;77;21538;-73
2021/05/31 06:11:29;;;;;;;4.37;1.52;;;;;;;16.19;48.79;100372.45;1818208;77;21499;-72
2021/05/31 06:13:57;;;;;;;2.55;1.72;;;;;;;16.31;48.59;100377.64;1798599;77;21557;-73
2021/05/31 06:16:29;;;;;;;4.35;1.70;;;;;;;16.36;48.58;100384.34;1831415;77;21658;-74
2021/05/31 06:19:03;;;;;;;3.15;1.62;;;;;;;16.28;49.19;100376.55;1823327;77;20963;-69
2021/05/31 06:21:43;;;;;;;3.60;1.70;;;;;;;16.45;49.73;100380.53;1828229;77;20999;-71
2021/05/31 06:24:12;;;;;;;6.28;1.47;;;;;;;16.79;47.95;100368.34;1830337;77;21051;-70
2021/05/31 06:26:41;;;;;;;2.25;1.55;;;;;;;17.13;44.88;100374.47;1833185;77;21606;-69
2021/05/31 06:29:08;;;;;;;2.50;1.47;;;;;;;17.38;45.12;100372.05;1771579;79;21071;-69
2021/05/31 06:31:36;;;;;;;4.45;1.90;;;;;;;17.59;45.29;100369.01;1839088;77;20968;-69
2021/05/31 06:34:03;;;;;;;3.55;1.67;;;;;;;17.86;44.38;100373.91;1831720;77;21003;-68
2021/05/31 06:36:39;;;;;;;1.98;1.52;;;;;;;18.18;43.40;100375.22;1821940;77;21036;-68
2021/05/31 06:39:06;;;;;;;1.45;1.35;;;;;;;18.25;43.10;100366.33;1832410;77;21117;-69
2021/05/31 06:41:35;;;;;;;5.42;1.67;;;;;;;18.18;42.95;100373.06;1833435;77;21097;-69
2021/05/31 06:44:03;;;;;;;10.50;2.12;;;;;;;18.24;43.12;100369.44;1828286;77;21016;-69
2021/05/31 06:46:31;;;;;;;3.33;1.50;;;;;;;18.21;42.91;100362.27;1802405;77;20985;-70
2021/05/31 06:49:00;;;;;;;2.50;1.55;;;;;;;17.94;43.06;100365.38;1828658;77;21069;-69
2021/05/31 06:51:27;;;;;;;3.25;1.87;;;;;;;17.84;43.96;100363.13;1784649;79;21526;-68
2021/05/31 06:53:58;;;;;;;5.80;1.75;;;;;;;17.91;43.72;100367.78;1828832;77;20960;-68
2021/05/31 06:56:25;;;;;;;3.33;1.80;;;;;;;17.81;44.09;100362.89;1837072;77;20957;-70
2021/05/31 06:58:53;;;;;;;3.98;1.77;;;;;;;17.54;44.29;100373.83;1827512;77;21019;-70
2021/05/31 07:01:20;;;;;;;3.05;1.70;;;;;;;17.32;45.43;100365.47;1823650;77;20929;-69
2021/05/31 07:03:47;;;;;;;9.08;2.47;;;;;;;17.12;46.17;100366.20;1817565;77;20953;-68
2021/05/31 07:06:17;;;;;;;3.75;1.55;;;;;;;16.85;46.46;100357.81;1824381;77;21012;-71
2021/05/31 07:08:44;;;;;;;5.83;1.82;;;;;;;16.71;47.00;100369.88;1784421;79;21018;-69
2021/05/31 07:11:16;;;;;;;2.72;1.72;;;;;;;16.73;46.33;100367.97;1772391;79;21020;-71
2021/05/31 07:13:49;;;;;;;2.40;2.00;;;;;;;16.92;46.43;100368.22;1767202;80;21915;-71
2021/05/31 07:16:16;;;;;;;1.92;1.80;;;;;;;17.29;44.25;100374.92;1770175;80;21566;-70
2021/05/31 07:18:43;;;;;;;3.95;1.75;;;;;;;17.70;44.01;100368.19;1766877;80;21431;-69
2021/05/31 07:21:11;;;;;;;4.42;1.65;;;;;;;18.06;42.49;100373.58;1769707;80;21606;-72
2021/05/31 07:23:39;;;;;;;2.65;1.80;;;;;;;18.16;41.03;100370.55;1770868;81;20890;-70
2021/05/31 07:26:06;;;;;;;1.45;1.35;;;;;;;17.99;42.86;100368.48;1769802;81;21024;-69
2021/05/31 07:28:35;;;;;;;2.60;1.87;;;;;;;17.89;43.31;100371.02;1747773;81;21606;-70
2021/05/31 07:31:02;;;;;;;6.03;1.80;;;;;;;17.78;42.51;100364.46;1748154;81;21222;-69
2021/05/31 07:33:29;;;;;;;9.10;1.87;;;;;;;17.58;42.94;100375.74;1759470;80;20929;-70
2021/05/31 07:35:57;;;;;;;4.17;1.82;;;;;;;17.33;43.81;100376.35;1758463;80;20936;-70
2021/05/31 07:38:24;;;;;;;4.40;2.05;;;;;;;17.10;44.68;100368.59;1757409;80;21056;-71
2021/05/31 07:40:53;;;;;;;1.87;1.62;;;;;;;16.90;45.29;100376.23;1757255;80;21122;-71
2021/05/31 07:43:21;;;;;;;2.58;1.70;;;;;;;16.79;46.47;100372.77;1762210;80;21060;-72
2021/05/31 07:45:51;;;;;;;5.50;1.60;;;;;;;16.89;47.24;100367.98;1748803;80;20973;-71
2021/05/31 07:48:18;;;;;;;9.20;1.92;;;;;;;17.43;46.69;100369.05;1759432;80;21403;-71
2021/05/31 07:50:45;;;;;;;7.17;1.67;;;;;;;17.97;45.17;100369.92;1771740;80;21000;-70
2021/05/31 07:53:21;;;;;;;4.47;1.60;;;;;;;18.22;44.35;100372.69;1772549;80;21004;-71
2021/05/31 07:55:45;;;;;;;6.28;1.67;;;;;;;18.15;43.66;100378.10;1738067;79;21135;-69
2021/05/31 07:58:13;;;;;;;1.75;1.65;;;;;;;17.98;44.12;100382.14;1719950;81;21608;-70
2021/05/31 08:00:40;;;;;;;6.53;1.60;;;;;;;17.87;44.16;100388.75;1739455;80;21031;-69
2021/05/31 08:03:07;;;;;;;4.67;1.57;;;;;;;17.91;43.26;100384.07;1745945;80;21136;-69
2021/05/31 08:05:36;;;;;;;6.62;1.52;;;;;;;17.90;42.60;100379.77;1736921;80;22176;-70
2021/05/31 08:08:03;;;;;;;5.08;1.80;;;;;;;17.75;43.38;100380.98;1795730;79;21042;-69
2021/05/31 08:10:32;;;;;;;12.05;2.10;;;;;;;17.47;43.53;100372.64;1761937;81;21640;-68
2021/05/31 08:12:59;;;;;;;2.80;1.70;;;;;;;17.20;44.21;100378.27;1803956;77;20944;-71
2021/05/31 08:15:28;;;;;;;3.92;2.00;;;;;;;17.02;44.43;100382.83;1795123;77;21036;-70
2021/05/31 08:17:56;;;;;;;1.70;1.60;;;;;;;16.86;44.91;100372.63;1800995;77;20916;-68
2021/05/31 08:20:24;;;;;;;3.30;1.87;;;;;;;16.93;45.05;100384.36;1789380;77;21092;-69
2021/05/31 08:22:54;;;;;;;4.20;1.60;;;;;;;17.05;44.81;100375.53;1795886;77;21506;-69
2021/05/31 08:25:24;;;;;;;3.17;1.75;;;;;;;17.26;44.42;100378.27;1760596;80;20935;-69
2021/05/31 08:27:52;;;;;;;4.62;1.80;;;;;;;17.55;43.86;100378.14;1789471;77;20964;-67
2021/05/31 08:30:21;;;;;;;3.72;1.90;;;;;;;17.91;43.96;100378.32;1803126;77;21039;-67
2021/05/31 08:32:48;;;;;;;5.45;1.90;;;;;;;18.13;42.14;100383.98;1790487;77;21609;-68
2021/05/31 08:35:16;;;;;;;2.70;1.62;;;;;;;18.06;41.56;100393.83;1800072;79;21016;-71
2021/05/31 08:37:43;;;;;;;7.58;1.98;;;;;;;17.86;41.94;100383.60;1802961;77;20984;-68
2021/05/31 08:40:11;;;;;;;5.05;2.08;;;;;;;17.53;41.35;100396.33;1786530;79;21653;-66
2021/05/31 08:42:38;;;;;;;3.55;1.70;;;;;;;17.22;42.25;100389.52;1755387;79;21249;-67
2021/05/31 08:45:07;;;;;;;3.98;1.82;;;;;;;16.95;42.82;100384.61;1742475;80;21038;-69
2021/05/31 08:47:46;;;;;;;3.12;1.85;;;;;;;16.80;43.92;100389.72;1735436;82;21071;-68
2021/05/31 08:50:20;;;;;;;3.27;1.90;;;;;;;16.76;44.22;100384.84;1792887;79;21000;-72
2021/05/31 08:52:49;;;;;;;4.22;1.70;;;;;;;16.68;43.95;100390.67;1800389;79;21019;-68
2021/05/31 08:55:20;;;;;;;7.05;2.05;;;;;;;16.68;43.71;100379.31;1792963;77;20928;-68
2021/05/31 08:57:47;;;;;;;3.55;1.82;;;;;;;16.64;43.73;100390.06;1808108;78;21745;-67
2021/05/31 09:00:18;;;;;;;5.83;1.82;;;;;;;16.58;44.52;100381.29;1816027;78;20986;-67
2021/05/31 09:02:45;;;;;;;2.58;1.90;;;;;;;16.50;43.99;100395.48;1820831;78;21555;-70
2021/05/31 09:05:14;;;;;;;3.00;1.75;;;;;;;16.38;43.86;100379.81;1834804;78;21012;-69
2021/05/31 09:07:51;;;;;;;3.45;1.62;;;;;;;16.25;44.02;100380.72;1813518;78;21459;-67
2021/05/31 09:10:20;;;;;;;1.98;1.72;;;;;;;16.24;44.31;100372.95;1826744;78;21576;-68
2021/05/31 09:12:48;;;;;;;6.97;2.05;;;;;;;16.25;45.01;100382.51;1767003;80;21482;-69
2021/05/31 09:15:15;;;;;;;2.90;1.92;;;;;;;16.27;45.55;100380.61;1787356;78;20928;-70
2021/05/31 09:17:47;;;;;;;7.78;2.20;;;;;;;16.41;45.22;100379.55;1816313;78;21008;-69
2021/05/31 09:20:14;;;;;;;4.47;1.65;;;;;;;16.55;45.21;100381.52;1809867;78;21577;-68
2021/05/31 09:22:49;;;;;;;2.77;1.65;;;;;;;16.61;44.59;100381.06;1781701;78;21000;-69
2021/05/31 09:25:32;;;;;;;3.85;2.00;;;;;;;16.59;44.76;100385.59;1816910;78;20948;-68
2021/05/31 09:28:07;;;;;;;7.50;2.37;;;;;;;16.58;44.49;100378.66;1815761;78;21542;-69
2021/05/31 09:30:38;;;;;;;7.35;1.90;;;;;;;16.60;44.13;100384.64;1753759;80;20989;-68
2021/05/31 09:33:13;;;;;;;3.98;1.87;;;;;;;16.68;43.88;100381.47;1816700;78;21738;-71
2021/05/31 09:35:43;;;;;;;4.85;1.80;;;;;;;16.79;43.50;100378.87;1818392;78;21066;-69
2021/05/31 09:38:10;;;;;;;2.20;1.80;;;;;;;16.89;43.54;100377.19;1815757;78;20933;-69
2021/05/31 09:40:37;;;;;;;5.50;1.70;;;;;;;17.05;43.87;100382.59;1814807;78;20995;-68
2021/05/31 09:43:06;;;;;;;2.12;1.95;;;;;;;17.14;43.61;100380.09;1811618;78;21055;-70
2021/05/31 09:45:36;;;;;;;2.60;1.85;;;;;;;17.14;43.18;100377.45;1806555;78;20969;-69
2021/05/31 09:48:04;;;;;;;3.87;1.55;;;;;;;17.15;43.40;100375.19;1773734;80;21369;-69
2021/05/31 09:50:32;;;;;;;1.47;1.37;;;;;;;17.22;42.80;100369.77;1831666;78;21004;-69
2021/05/31 09:53:08;;;;;;;8.63;2.00;;;;;;;17.21;43.24;100373.36;1820096;78;21043;-70
2021/05/31 09:55:44;;;;;;;4.55;1.87;;;;;;;17.24;43.09;100367.86;1821752;78;21008;-69
2021/05/31 09:58:15;;;;;;;2.37;1.52;;;;;;;17.28;43.82;100371.09;1833665;77;20957;-69
2021/05/31 10:00:49;;;;;;;4.67;1.52;;;;;;;17.32;42.92;100378.63;1828911;77;21051;-68
2021/05/31 10:11:04;;;;;;;4.17;1.77;;;;;;;17.23;41.47;100386.40;1851405;77;21569;-68
2021/05/31 10:13:32;;;;;;;1.50;1.40;;;;;;;17.17;41.96;100375.91;1850376;77;21079;-68
2021/05/31 10:16:01;;;;;;;2.15;1.50;;;;;;;17.20;42.26;100382.21;1849993;77;21683;-68
2021/05/31 10:18:30;;;;;;;3.90;1.70;;;;;;;17.27;41.70;100387.84;1816391;77;20980;-69
2021/05/31 10:21:00;;;;;;;1.67;1.57;;;;;;;17.31;42.28;100381.38;1851524;77;20928;-68
2021/05/31 10:23:31;;;;;;;2.12;1.70;;;;;;;17.32;41.88;100377.79;1850481;77;21014;-69
2021/05/31 10:26:01;;;;;;;2.92;1.60;;;;;;;17.31;42.64;100378.75;1851939;77;21063;-68
2021/05/31 10:28:34;;;;;;;6.92;1.57;;;;;;;17.34;41.42;100372.77;1851647;77;21483;-67
2021/05/31 10:31:05;;;;;;;4.75;1.70;;;;;;;17.27;41.90;100374.68;1819321;77;21015;-67
2021/05/31 10:33:41;;;;;;;3.12;1.67;;;;;;;17.17;41.89;100366.69;1850692;77;21110;-69
2021/05/31 10:36:21;;;;;;;2.02;1.72;;;;;;;17.05;42.53;100372.06;1849990;77;20932;-69
2021/05/31 10:38:50;;;;;;;1.87;1.50;;;;;;;16.97;42.40;100367.39;1819343;77;21883;-68
2021/05/31 10:41:23;;;;;;;3.90;1.77;;;;;;;16.93;42.53;100372.53;1850186;77;20944;-68
2021/05/31 10:43:54;;;;;;;4.25;1.57;;;;;;;16.93;42.92;100373.36;1851358;77;20968;-69
2021/05/31 10:46:27;;;;;;;1.57;1.47;;;;;;;16.93;42.70;100364.16;1849723;77;21680;-67
2021/05/31 10:48:55;;;;;;;1.90;1.80;;;;;;;16.98;42.20;100358.55;1826386;77;20970;-68
2021/05/31 10:51:26;;;;;;;1.67;1.55;;;;;;;17.03;42.59;100355.56;1819646;78;21933;-67
2021/05/31 10:53:54;;;;;;;3.85;1.70;;;;;;;17.05;43.38;100365.01;1764945;80;21019;-67
2021/05/31 10:56:26;;;;;;;4.90;1.65;;;;;;;17.03;43.37;100357.71;1818697;77;21083;-69
2021/05/31 10:58:57;;;;;;;1.57;1.20;;;;;;;17.00;43.77;100371.94;1762882;80;21084;-67
2021/05/31 11:01:37;;;;;;;1.50;1.40;;;;;;;16.99;41.75;100370.27;1837691;77;20995;-69
2021/05/31 11:04:15;;;;;;;1.80;1.70;;;;;;;16.89;42.19;100365.34;1832483;77;21585;-70
2021/05/31 11:06:44;;;;;;;2.20;1.55;;;;;;;16.82;41.83;100366.77;1834802;77;21590;-69
2021/05/31 11:09:15;;;;;;;1.92;1.57;;;;;;;16.81;42.00;100359.83;1835982;77;20944;-68
2021/05/31 11:11:50;;;;;;;1.30;1.20;;;;;;;16.87;42.75;100369.05;1825880;77;20972;-68
2021/05/31 11:14:45;;;;;;;4.95;1.82;;;;;;;16.98;42.30;100364.64;1820135;77;20893;-69
2021/05/31 11:17:16;;;;;;;2.22;1.35;;;;;;;17.10;42.05;100367.28;1828230;77;21019;-69
2021/05/31 11:19:47;;;;;;;1.40;1.30;;;;;;;17.18;42.68;100372.31;1823473;77;21003;-68
2021/05/31 11:22:26;;;;;;;2.65;1.22;;;;;;;17.27;41.74;100375.52;1825623;77;20964;-69
2021/05/31 11:24:59;;;;;;;4.65;1.52;;;;;;;17.31;41.84;100373.48;1833459;77;20982;-67
2021/05/31 11:27:34;;;;;;;2.98;1.30;;;;;;;17.29;41.70;100372.77;1822863;77;20995;-68
2021/05/31 11:30:11;;;;;;;2.65;1.45;;;;;;;17.27;41.49;100375.52;1831356;77;21060;-67
2021/05/31 11:32:40;;;;;;;3.45;1.55;;;;;;;17.23;41.58;100377.19;1829594;77;20921;-67
2021/05/31 11:35:09;;;;;;;4.65;1.80;;;;;;;17.14;42.54;100378.77;1768103;79;21089;-67
2021/05/31 11:37:36;;;;;;;2.20;1.55;;;;;;;17.08;42.05;100381.03;1829738;77;20988;-68
2021/05/31 11:40:05;;;;;;;1.37;1.30;;;;;;;16.98;42.61;100375.64;1824144;77;21598;-68
2021/05/31 11:42:33;;;;;;;3.33;1.50;;;;;;;16.87;43.10;100386.14;1825115;77;21052;-67
2021/05/31 11:45:01;;;;;;;4.22;1.70;;;;;;;16.74;43.11;100388.06;1830516;77;21656;-68
2021/05/31 11:47:30;;;;;;;5.22;1.50;;;;;;;16.61;43.09;100382.85;1788490;79;20916;-69
2021/05/31 11:49:59;;;;;;;2.33;2.12;;;;;;;16.50;43.79;100382.34;1818969;77;21530;-70
2021/05/31 11:52:28;;;;;;;2.50;2.30;;;;;;;16.43;42.46;100383.75;1818641;77;20944;-67
2021/05/31 11:54:55;;;;;;;2.75;1.90;;;;;;;16.38;42.74;100384.59;1834608;77;21450;-68
2021/05/31 11:57:24;;;;;;;2.52;1.37;;;;;;;16.36;42.82;100392.23;1828758;77;20925;-69
2021/05/31 11:59:57;;;;;;;3.52;2.10;;;;;;;16.29;43.08;100384.80;1818996;77;21012;-67
2021/05/31 12:02:30;;;;;;;6.70;2.02;;;;;;;16.31;43.46;100380.27;1817129;77;21535;-67
2021/05/31 12:04:55;;;;;;;3.17;1.60;;;;;;;16.39;43.93;100382.33;1826138;77;20929;-66
2021/05/31 12:07:24;;;;;;;2.10;1.67;;;;;;;16.55;43.89;100384.62;1819510;77;21088;-67
2021/05/31 12:09:52;;;;;;;4.70;1.77;;;;;;;16.71;43.37;100389.61;1829277;77;20953;-67
2021/05/31 12:12:24;;;;;;;3.58;1.95;;;;;;;16.78;42.60;100390.34;1818779;77;20933;-68
2021/05/31 12:14:55;;;;;;;7.75;2.92;;;;;;;16.77;42.02;100393.92;1832060;77;21044;-69
2021/05/31 12:17:27;;;;;;;2.15;1.52;;;;;;;16.75;42.47;100386.63;1814021;77;21028;-69
2021/05/31 12:19:54;;;;;;;3.45;1.65;;;;;;;16.77;42.09;100372.89;1820053;77;21541;-67
2021/05/31 12:22:26;;;;;;;2.10;1.90;;;;;;;16.80;42.49;100383.14;1824752;77;21008;-67
2021/05/31 12:24:55;;;;;;;3.83;2.40;;;;;;;16.85;42.41;100374.42;1820253;77;21000;-67
2021/05/31 12:27:27;;;;;;;2.87;2.58;;;;;;;16.85;42.73;100382.80;1817883;77;21016;-67
2021/05/31 12:29:56;;;;;;;3.22;2.60;;;;;;;16.81;42.96;100375.61;1774112;79;21618;-68
2021/05/31 12:32:26;;;;;;;8.48;4.87;;;;;;;16.77;43.39;100390.45;1756910;80;21830;-67
2021/05/31 12:34:57;;;;;;;2.77;2.33;;;;;;;16.69;44.29;100391.52;1784220;79;21057;-68
2021/05/31 12:37:34;;;;;;;5.42;1.87;;;;;;;16.52;44.81;100392.27;1768489;80;21082;-68
2021/05/31 12:40:11;;;;;;;6.40;2.67;;;;;;;16.29;45.37;100398.41;1772507;80;21544;-69
2021/05/31 12:42:38;;;;;;;5.17;1.87;;;;;;;16.02;45.48;100399.95;1759490;80;20958;-68
2021/05/31 12:45:12;;;;;;;4.50;2.10;;;;;;;15.75;45.82;100405.41;1759859;80;21509;-69
2021/05/31 12:47:43;;;;;;;2.55;1.90;;;;;;;15.53;46.14;100407.40;1764405;80;21051;-68
2021/05/31 12:50:14;;;;;;;3.40;1.95;;;;;;;15.32;46.25;100408.89;1766023;80;21048;-69
2021/05/31 12:52:44;;;;;;;2.92;2.00;;;;;;;15.18;46.88;100409.03;1765751;80;21598;-68
2021/05/31 12:55:16;;;;;;;3.77;2.02;;;;;;;15.09;47.17;100413.59;1815933;77;20996;-69
2021/05/31 12:57:46;;;;;;;2.58;1.80;;;;;;;15.00;47.11;100409.81;1816100;77;20960;-68
2021/05/31 13:00:20;;;;;;;3.72;1.87;;;;;;;14.94;47.64;100403.20;1804291;78;20980;-68
2021/05/31 13:02:53;;;;;;;4.05;2.40;;;;;;;14.93;47.56;100403.31;1800033;77;20977;-69
2021/05/31 13:05:26;;;;;;;5.20;1.92;;;;;;;14.94;47.45;100401.05;1812160;77;21004;-70
2021/05/31 13:07:58;;;;;;;6.03;2.33;;;;;;;14.98;47.98;100394.66;1807690;77;21035;-68
2021/05/31 13:10:34;;;;;;;3.12;1.87;;;;;;;15.05;47.62;100393.30;1814248;79;21070;-69
2021/05/31 13:13:10;;;;;;;1.98;1.77;;;;;;;15.10;47.41;100399.54;1763626;79;21040;-68
2021/05/31 13:15:55;;;;;;;5.12;1.67;;;;;;;15.11;47.58;100388.11;1819779;77;20925;-69
2021/05/31 13:18:32;;;;;;;3.15;1.65;;;;;;;15.13;47.42;100404.10;1822162;78;20978;-68
2021/05/31 13:21:17;;;;;;;4.03;1.90;;;;;;;15.17;47.50;100404.73;1783433;80;21048;-69
2021/05/31 13:23:45;;;;;;;5.75;2.00;;;;;;;15.23;47.44;100397.72;1804276;78;21064;-69
2021/05/31 13:26:14;;;;;;;2.60;1.75;;;;;;;15.34;47.85;100387.32;1818610;79;21589;-74
2021/05/31 13:28:43;;;;;;;3.20;1.90;;;;;;;15.51;47.95;100384.36;1804606;79;20955;-69
2021/05/31 13:31:19;;;;;;;5.17;2.42;;;;;;;15.73;47.49;100385.47;1819075;78;20925;-69
2021/05/31 13:33:51;;;;;;;4.67;1.77;;;;;;;15.92;46.65;100389.77;1807448;77;20964;-70
2021/05/31 13:36:22;;;;;;;4.00;1.70;;;;;;;16.05;45.95;100392.31;1793197;79;21065;-69
2021/05/31 13:38:50;;;;;;;4.40;1.60;;;;;;;16.13;45.56;100384.72;1807989;78;20945;-69
2021/05/31 13:41:17;;;;;;;6.00;1.70;;;;;;;16.20;45.69;100389.89;1809406;79;20988;-69
2021/05/31 13:43:52;;;;;;;8.05;2.17;;;;;;;16.28;45.14;100380.49;1807517;79;21406;-69
2021/05/31 13:46:19;;;;;;;3.42;1.80;;;;;;;16.29;45.53;100372.13;1814867;79;21495;-69
2021/05/31 13:48:50;;;;;;;2.33;1.80;;;;;;;16.27;45.57;100368.78;1814703;78;20956;-68
2021/05/31 13:51:18;;;;;;;3.47;1.70;;;;;;;16.22;45.21;100374.38;1809652;79;20963;-70
2021/05/31 13:53:46;;;;;;;2.40;1.85;;;;;;;16.15;45.14;100372.31;1804610;79;21516;-69
2021/05/31 13:56:14;;;;;;;3.92;1.70;;;;;;;16.11;45.64;100374.80;1804692;79;21001;-68
2021/05/31 13:58:41;;;;;;;1.75;1.65;;;;;;;16.10;45.57;100377.89;1812489;78;21092;-69
2021/05/31 14:01:08;;;;;;;4.47;2.02;;;;;;;16.06;45.44;100368.56;1820472;77;20960;-69
2021/05/31 14:03:37;;;;;;;3.72;1.80;;;;;;;16.00;45.06;100376.41;1826062;77;20964;-71
2021/05/31 14:06:04;;;;;;;6.33;2.10;;;;;;;15.94;45.56;100365.55;1813297;77;20996;-70
